sensor_id;sensor_type;location;lat;lon;timestamp;pressure;altitude;pressure_sealevel;temperature;humidity
49611;BME280;35515;48.766;9.176;2023-07-16T00:02:07;98190.31;;;22.67;94.30
49611;BME280;35515;48.766;9.176;2023-07-16T00:04:33;98206.19;;;22.51;96.83
49611;BME280;35515;48.766;9.176;2023-07-16T00:07:00;98203.19;;;22.48;98.22
49611;BME280;35515;48.766;9.176;2023-07-16T00:09:28;98194.88;;;22.53;95.98
49611;BME280;35515;48.766;9.176;2023-07-16T00:11:56;98189.69;;;22.46;95.00
49611;BME280;35515;48.766;9.176;2023-07-16T00:14:22;98183.09;;;22.42;95.75
49611;BME280;35515;48.766;9.176;2023-07-16T00:16:49;98201.13;;;22.29;98.53
49611;BME280;35515;48.766;9.176;2023-07-16T00:19:15;98196.53;;;22.19;98.05
49611;BME280;35515;48.766;9.176;2023-07-16T00:21:42;98185.53;;;22.14;96.63
49611;BME280;35515;48.766;9.176;2023-07-16T00:24:08;98163.13;;;22.21;94.81
49611;BME280;35515;48.766;9.176;2023-07-16T00:26:36;98173.78;;;22.33;93.58
49611;BME280;35515;48.766;9.176;2023-07-16T00:29:02;98190.88;;;22.30;93.09
49611;BME280;35515;48.766;9.176;2023-07-16T00:31:29;98189.31;;;22.24;94.55
49611;BME280;35515;48.766;9.176;2023-07-16T00:33:55;98195.63;;;22.24;93.45
49611;BME280;35515;48.766;9.176;2023-07-16T00:36:22;98199.84;;;22.16;95.19
49611;BME280;35515;48.766;9.176;2023-07-16T00:38:49;98210.41;;;22.04;99.41
49611;BME280;35515;48.766;9.176;2023-07-16T00:41:15;98208.28;;;21.96;97.52
49611;BME280;35515;48.766;9.176;2023-07-16T00:43:43;98214.50;;;21.72;99.48
49611;BME280;35515;48.766;9.176;2023-07-16T00:46:10;98222.75;;;21.77;100.00
49611;BME280;35515;48.766;9.176;2023-07-16T00:48:37;98216.41;;;21.77;100.00
49611;BME280;35515;48.766;9.176;2023-07-16T00:51:04;98207.88;;;21.73;100.00
49611;BME280;35515;48.766;9.176;2023-07-16T00:53:31;98198.81;;;21.73;100.00
49611;BME280;35515;48.766;9.176;2023-07-16T00:55:58;98204.34;;;21.67;100.00
49611;BME280;35515;48.766;9.176;2023-07-16T00:58:25;98194.16;;;21.63;100.00
49611;BME280;35515;48.766;9.176;2023-07-16T01:00:53;98197.44;;;21.70;100.00
49611;BME280;35515;48.766;9.176;2023-07-16T01:03:20;98205.94;;;21.74;100.00
49611;BME280;35515;48.766;9.176;2023-07-16T01:05:49;98215.38;;;21.67;100.00
49611;BME280;35515;48.766;9.176;2023-07-16T01:08:24;98231.03;;;21.72;100.00
49611;BME280;35515;48.766;9.176;2023-07-16T01:10:54;98233.44;;;21.84;100.00
49611;BME280;35515;48.766;9.176;2023-07-16T01:13:21;98237.00;;;21.90;100.00
49611;BME280;35515;48.766;9.176;2023-07-16T01:15:48;98245.88;;;21.81;100.00
49611;BME280;35515;48.766;9.176;2023-07-16T01:18:17;98247.50;;;21.87;100.00
49611;BME280;35515;48.766;9.176;2023-07-16T01:20:43;98254.50;;;21.69;100.00
49611;BME280;35515;48.766;9.176;2023-07-16T01:23:28;98258.09;;;21.65;100.00
49611;BME280;35515;48.766;9.176;2023-07-16T01:26:09;98251.59;;;21.95;100.00
49611;BME280;35515;48.766;9.176;2023-07-16T01:31:36;98252.34;;;21.61;100.00
49611;BME280;35515;48.766;9.176;2023-07-16T01:34:04;98260.88;;;21.65;100.00
49611;BME280;35515;48.766;9.176;2023-07-16T01:36:32;98260.31;;;21.63;100.00
49611;BME280;35515;48.766;9.176;2023-07-16T01:39:01;98255.84;;;21.72;100.00
49611;BME280;35515;48.766;9.176;2023-07-16T01:41:27;98259.50;;;21.62;100.00
49611;BME280;35515;48.766;9.176;2023-07-16T01:43:54;98261.41;;;21.62;99.98
49611;BME280;35515;48.766;9.176;2023-07-16T01:46:20;98241.81;;;21.68;99.08
49611;BME280;35515;48.766;9.176;2023-07-16T01:48:48;98255.88;;;21.67;98.65
49611;BME280;35515;48.766;9.176;2023-07-16T01:51:15;98240.56;;;21.35;98.67
49611;BME280;35515;48.766;9.176;2023-07-16T01:53:42;98236.97;;;21.40;95.20
49611;BME280;35515;48.766;9.176;2023-07-16T01:56:08;98227.91;;;21.34;93.02
49611;BME280;35515;48.766;9.176;2023-07-16T01:58:35;98248.34;;;21.23;95.21
49611;BME280;35515;48.766;9.176;2023-07-16T02:01:01;98248.94;;;21.14;94.76
49611;BME280;35515;48.766;9.176;2023-07-16T02:03:28;98260.53;;;21.01;96.33
49611;BME280;35515;48.766;9.176;2023-07-16T02:05:56;98264.69;;;20.93;95.58
49611;BME280;35515;48.766;9.176;2023-07-16T02:08:22;98275.38;;;21.05;94.61
49611;BME280;35515;48.766;9.176;2023-07-16T02:10:49;98259.66;;;21.11;95.79
49611;BME280;35515;48.766;9.176;2023-07-16T02:13:16;98256.09;;;21.15;91.45
49611;BME280;35515;48.766;9.176;2023-07-16T02:15:42;98254.41;;;21.25;92.04
49611;BME280;35515;48.766;9.176;2023-07-16T02:18:09;98268.97;;;21.30;92.71
49611;BME280;35515;48.766;9.176;2023-07-16T02:20:36;98278.94;;;21.21;95.53
49611;BME280;35515;48.766;9.176;2023-07-16T02:23:04;98268.22;;;20.99;99.38
49611;BME280;35515;48.766;9.176;2023-07-16T02:25:31;98279.25;;;21.04;97.38
49611;BME280;35515;48.766;9.176;2023-07-16T02:27:58;98286.13;;;20.96;95.23
49611;BME280;35515;48.766;9.176;2023-07-16T02:30:25;98293.03;;;20.94;95.03
49611;BME280;35515;48.766;9.176;2023-07-16T02:32:51;98289.75;;;20.81;97.87
49611;BME280;35515;48.766;9.176;2023-07-16T02:35:17;98279.84;;;20.80;98.67
49611;BME280;35515;48.766;9.176;2023-07-16T02:37:44;98279.81;;;20.85;98.30
49611;BME280;35515;48.766;9.176;2023-07-16T02:40:12;98281.47;;;20.86;98.39
49611;BME280;35515;48.766;9.176;2023-07-16T02:42:39;98278.72;;;20.97;96.41
49611;BME280;35515;48.766;9.176;2023-07-16T02:45:06;98277.63;;;20.87;94.39
49611;BME280;35515;48.766;9.176;2023-07-16T02:47:33;98282.56;;;21.01;98.05
49611;BME280;35515;48.766;9.176;2023-07-16T02:50:00;98296.31;;;21.06;98.90
49611;BME280;35515;48.766;9.176;2023-07-16T02:52:26;98287.22;;;21.11;95.60
49611;BME280;35515;48.766;9.176;2023-07-16T02:54:53;98291.91;;;21.10;92.93
49611;BME280;35515;48.766;9.176;2023-07-16T02:57:22;98297.66;;;21.14;89.43
49611;BME280;35515;48.766;9.176;2023-07-16T02:59:48;98283.34;;;21.12;88.04
49611;BME280;35515;48.766;9.176;2023-07-16T03:02:15;98287.53;;;20.88;90.28
49611;BME280;35515;48.766;9.176;2023-07-16T03:04:41;98311.50;;;20.88;88.47
49611;BME280;35515;48.766;9.176;2023-07-16T03:07:07;98313.44;;;20.72;83.62
49611;BME280;35515;48.766;9.176;2023-07-16T03:09:34;98302.97;;;20.69;85.16
49611;BME280;35515;48.766;9.176;2023-07-16T03:12:00;98292.50;;;20.97;82.95
49611;BME280;35515;48.766;9.176;2023-07-16T03:14:28;98299.63;;;21.03;78.45
49611;BME280;35515;48.766;9.176;2023-07-16T03:16:55;98298.81;;;20.66;83.21
49611;BME280;35515;48.766;9.176;2023-07-16T03:19:21;98314.50;;;20.55;82.47
49611;BME280;35515;48.766;9.176;2023-07-16T03:21:48;98326.06;;;20.42;83.94
49611;BME280;35515;48.766;9.176;2023-07-16T03:24:15;98332.38;;;20.43;84.79
49611;BME280;35515;48.766;9.176;2023-07-16T03:26:41;98347.53;;;20.61;81.97
49611;BME280;35515;48.766;9.176;2023-07-16T03:29:08;98336.56;;;20.86;79.85
49611;BME280;35515;48.766;9.176;2023-07-16T03:31:36;98331.03;;;20.92;79.10
49611;BME280;35515;48.766;9.176;2023-07-16T03:34:02;98342.59;;;20.88;75.66
49611;BME280;35515;48.766;9.176;2023-07-16T03:36:29;98343.97;;;21.01;77.53
49611;BME280;35515;48.766;9.176;2023-07-16T03:38:56;98350.56;;;21.05;75.97
49611;BME280;35515;48.766;9.176;2023-07-16T03:41:22;98359.66;;;21.01;76.15
49611;BME280;35515;48.766;9.176;2023-07-16T03:43:49;98364.09;;;20.92;76.25
49611;BME280;35515;48.766;9.176;2023-07-16T03:46:15;98340.69;;;20.89;76.73
49611;BME280;35515;48.766;9.176;2023-07-16T03:48:43;98367.66;;;20.87;75.77
49611;BME280;35515;48.766;9.176;2023-07-16T03:51:09;98383.88;;;20.68;76.69
49611;BME280;35515;48.766;9.176;2023-07-16T03:53:36;98378.34;;;20.58;79.84
49611;BME280;35515;48.766;9.176;2023-07-16T03:56:03;98399.31;;;20.69;78.02
49611;BME280;35515;48.766;9.176;2023-07-16T03:58:29;98402.03;;;20.59;77.99
49611;BME280;35515;48.766;9.176;2023-07-16T04:00:56;98401.72;;;20.55;78.74
49611;BME280;35515;48.766;9.176;2023-07-16T04:03:22;98409.41;;;20.43;81.87
49611;BME280;35515;48.766;9.176;2023-07-16T04:05:50;98406.97;;;20.51;80.86
49611;BME280;35515;48.766;9.176;2023-07-16T04:08:17;98411.88;;;20.39;82.95
49611;BME280;35515;48.766;9.176;2023-07-16T04:10:43;98408.31;;;20.38;82.52
49611;BME280;35515;48.766;9.176;2023-07-16T04:13:10;98395.91;;;20.26;82.90
49611;BME280;35515;48.766;9.176;2023-07-16T04:15:36;98381.00;;;20.01;84.99
49611;BME280;35515;48.766;9.176;2023-07-16T04:18:03;98390.94;;;20.17;84.85
49611;BME280;35515;48.766;9.176;2023-07-16T04:20:29;98389.81;;;20.13;86.39
49611;BME280;35515;48.766;9.176;2023-07-16T04:22:57;98379.31;;;20.00;86.27
49611;BME280;35515;48.766;9.176;2023-07-16T04:25:24;98378.78;;;20.03;87.08
49611;BME280;35515;48.766;9.176;2023-07-16T04:27:50;98382.06;;;20.00;88.37
49611;BME280;35515;48.766;9.176;2023-07-16T04:30:17;98400.78;;;20.03;88.50
49611;BME280;35515;48.766;9.176;2023-07-16T04:32:43;98406.31;;;20.13;88.20
49611;BME280;35515;48.766;9.176;2023-07-16T04:35:10;98415.66;;;20.12;88.25
49611;BME280;35515;48.766;9.176;2023-07-16T04:37:36;98437.38;;;20.03;90.62
49611;BME280;35515;48.766;9.176;2023-07-16T04:40:06;98429.06;;;19.93;91.31
49611;BME280;35515;48.766;9.176;2023-07-16T04:42:32;98437.59;;;19.92;90.76
49611;BME280;35515;48.766;9.176;2023-07-16T04:44:59;98438.13;;;19.94;91.53
49611;BME280;35515;48.766;9.176;2023-07-16T04:47:25;98449.91;;;19.84;92.23
49611;BME280;35515;48.766;9.176;2023-07-16T04:49:52;98448.31;;;19.93;89.72
49611;BME280;35515;48.766;9.176;2023-07-16T04:52:19;98446.38;;;19.94;89.72
49611;BME280;35515;48.766;9.176;2023-07-16T04:54:45;98443.13;;;19.97;92.18
49611;BME280;35515;48.766;9.176;2023-07-16T04:57:13;98446.44;;;20.04;92.17
49611;BME280;35515;48.766;9.176;2023-07-16T04:59:39;98445.09;;;20.12;91.90
49611;BME280;35515;48.766;9.176;2023-07-16T05:02:06;98441.69;;;19.89;94.11
49611;BME280;35515;48.766;9.176;2023-07-16T05:04:33;98444.72;;;19.87;92.59
49611;BME280;35515;48.766;9.176;2023-07-16T05:07:01;98448.59;;;19.92;94.09
49611;BME280;35515;48.766;9.176;2023-07-16T05:09:28;98454.88;;;19.87;94.78
49611;BME280;35515;48.766;9.176;2023-07-16T05:11:55;98461.66;;;19.74;95.47
49611;BME280;35515;48.766;9.176;2023-07-16T05:14:25;98455.69;;;19.82;95.42
49611;BME280;35515;48.766;9.176;2023-07-16T05:16:52;98455.75;;;19.93;91.21
49611;BME280;35515;48.766;9.176;2023-07-16T05:19:18;98453.50;;;19.90;90.46
49611;BME280;35515;48.766;9.176;2023-07-16T05:21:45;98457.66;;;19.92;92.32
49611;BME280;35515;48.766;9.176;2023-07-16T05:24:11;98456.84;;;19.92;91.81
49611;BME280;35515;48.766;9.176;2023-07-16T05:26:38;98456.31;;;20.00;89.32
49611;BME280;35515;48.766;9.176;2023-07-16T05:29:05;98451.97;;;20.14;86.91
49611;BME280;35515;48.766;9.176;2023-07-16T05:31:33;98447.56;;;20.13;86.47
49611;BME280;35515;48.766;9.176;2023-07-16T05:33:59;98450.81;;;20.00;87.36
49611;BME280;35515;48.766;9.176;2023-07-16T05:36:26;98461.28;;;20.03;90.51
49611;BME280;35515;48.766;9.176;2023-07-16T05:38:52;98468.09;;;19.90;94.32
49611;BME280;35515;48.766;9.176;2023-07-16T05:41:19;98477.75;;;19.98;92.57
49611;BME280;35515;48.766;9.176;2023-07-16T05:43:45;98472.88;;;20.10;92.88
49611;BME280;35515;48.766;9.176;2023-07-16T05:46:12;98468.47;;;20.09;90.48
49611;BME280;35515;48.766;9.176;2023-07-16T05:48:40;98475.91;;;20.19;89.20
49611;BME280;35515;48.766;9.176;2023-07-16T05:51:06;98493.81;;;20.21;88.05
49611;BME280;35515;48.766;9.176;2023-07-16T05:53:33;98497.66;;;20.26;86.92
49611;BME280;35515;48.766;9.176;2023-07-16T05:55:59;98504.84;;;20.27;86.01
49611;BME280;35515;48.766;9.176;2023-07-16T05:58:26;98483.66;;;20.32;87.07
49611;BME280;35515;48.766;9.176;2023-07-16T06:00:52;98481.50;;;20.40;83.59
49611;BME280;35515;48.766;9.176;2023-07-16T06:03:19;98476.28;;;20.48;82.34
49611;BME280;35515;48.766;9.176;2023-07-16T06:05:47;98475.13;;;20.24;83.49
49611;BME280;35515;48.766;9.176;2023-07-16T06:08:13;98474.63;;;20.37;82.24
49611;BME280;35515;48.766;9.176;2023-07-16T06:10:40;98481.13;;;20.20;83.84
49611;BME280;35515;48.766;9.176;2023-07-16T06:13:07;98474.56;;;20.27;82.58
49611;BME280;35515;48.766;9.176;2023-07-16T06:15:33;98489.69;;;20.24;82.91
49611;BME280;35515;48.766;9.176;2023-07-16T06:18:00;98499.56;;;20.20;83.35
49611;BME280;35515;48.766;9.176;2023-07-16T06:20:27;98500.16;;;20.32;83.32
49611;BME280;35515;48.766;9.176;2023-07-16T06:22:55;98502.91;;;20.22;83.31
49611;BME280;35515;48.766;9.176;2023-07-16T06:25:21;98493.03;;;20.36;82.59
49611;BME280;35515;48.766;9.176;2023-07-16T06:27:48;98489.41;;;20.26;81.13
49611;BME280;35515;48.766;9.176;2023-07-16T06:30:14;98482.25;;;20.19;82.53
49611;BME280;35515;48.766;9.176;2023-07-16T06:32:41;98489.50;;;20.41;81.31
49611;BME280;35515;48.766;9.176;2023-07-16T06:35:08;98491.66;;;20.34;81.47
49611;BME280;35515;48.766;9.176;2023-07-16T06:37:35;98478.72;;;20.34;82.07
49611;BME280;35515;48.766;9.176;2023-07-16T06:40:03;98492.22;;;20.36;79.76
49611;BME280;35515;48.766;9.176;2023-07-16T06:42:30;98492.19;;;20.31;80.81
49611;BME280;35515;48.766;9.176;2023-07-16T06:44:57;98485.56;;;20.27;81.80
49611;BME280;35515;48.766;9.176;2023-07-16T06:47:24;98481.75;;;20.33;81.94
49611;BME280;35515;48.766;9.176;2023-07-16T06:49:50;98488.31;;;20.27;80.90
49611;BME280;35515;48.766;9.176;2023-07-16T06:52:20;98485.66;;;20.42;80.44
49611;BME280;35515;48.766;9.176;2023-07-16T06:54:46;98481.22;;;20.36;78.89
49611;BME280;35515;48.766;9.176;2023-07-16T06:57:14;98483.69;;;20.37;80.06
49611;BME280;35515;48.766;9.176;2023-07-16T06:59:41;98491.13;;;20.37;79.17
49611;BME280;35515;48.766;9.176;2023-07-16T07:02:07;98500.44;;;20.31;81.21
49611;BME280;35515;48.766;9.176;2023-07-16T07:04:34;98500.44;;;20.31;80.83
49611;BME280;35515;48.766;9.176;2023-07-16T07:07:00;98500.78;;;20.45;79.80
49611;BME280;35515;48.766;9.176;2023-07-16T07:09:27;98502.66;;;20.39;80.69
49611;BME280;35515;48.766;9.176;2023-07-16T07:11:56;98492.50;;;20.40;82.14
49611;BME280;35515;48.766;9.176;2023-07-16T07:14:24;98491.69;;;20.44;80.37
49611;BME280;35515;48.766;9.176;2023-07-16T07:16:51;98486.19;;;20.44;79.27
49611;BME280;35515;48.766;9.176;2023-07-16T07:19:18;98484.00;;;20.46;79.52
49611;BME280;35515;48.766;9.176;2023-07-16T07:21:44;98486.22;;;20.54;78.00
49611;BME280;35515;48.766;9.176;2023-07-16T07:24:12;98473.59;;;20.64;77.99
49611;BME280;35515;48.766;9.176;2023-07-16T07:26:38;98469.72;;;20.60;76.71
49611;BME280;35515;48.766;9.176;2023-07-16T07:29:05;98467.50;;;20.62;75.67
49611;BME280;35515;48.766;9.176;2023-07-16T07:31:34;98483.22;;;20.66;74.79
49611;BME280;35515;48.766;9.176;2023-07-16T07:34:00;98484.09;;;20.72;73.87
49611;BME280;35515;48.766;9.176;2023-07-16T07:36:28;98497.91;;;20.87;72.89
49611;BME280;35515;48.766;9.176;2023-07-16T07:38:55;98505.59;;;20.85;73.19
49611;BME280;35515;48.766;9.176;2023-07-16T07:41:21;98500.38;;;20.89;72.15
49611;BME280;35515;48.766;9.176;2023-07-16T07:43:48;98500.09;;;20.96;73.07
49611;BME280;35515;48.766;9.176;2023-07-16T07:46:14;98499.56;;;21.04;71.51
49611;BME280;35515;48.766;9.176;2023-07-16T07:48:42;98492.97;;;21.10;70.65
49611;BME280;35515;48.766;9.176;2023-07-16T07:51:09;98492.41;;;21.29;68.51
49611;BME280;35515;48.766;9.176;2023-07-16T07:53:35;98497.38;;;21.11;70.25
49611;BME280;35515;48.766;9.176;2023-07-16T07:56:02;98505.63;;;21.06;68.85
49611;BME280;35515;48.766;9.176;2023-07-16T07:58:29;98507.25;;;20.92;69.86
49611;BME280;35515;48.766;9.176;2023-07-16T08:00:55;98502.03;;;20.85;70.75
49611;BME280;35515;48.766;9.176;2023-07-16T08:03:22;98512.78;;;21.02;71.33
49611;BME280;35515;48.766;9.176;2023-07-16T08:05:49;98512.25;;;21.41;69.36
49611;BME280;35515;48.766;9.176;2023-07-16T08:08:16;98507.56;;;21.52;68.29
49611;BME280;35515;48.766;9.176;2023-07-16T08:10:42;98512.81;;;21.64;67.01
49611;BME280;35515;48.766;9.176;2023-07-16T08:13:11;98512.25;;;21.82;64.37
49611;BME280;35515;48.766;9.176;2023-07-16T08:15:37;98517.75;;;21.51;65.33
49611;BME280;35515;48.766;9.176;2023-07-16T08:18:04;98518.03;;;21.45;64.29
49611;BME280;35515;48.766;9.176;2023-07-16T08:20:30;98508.66;;;21.46;65.70
49611;BME280;35515;48.766;9.176;2023-07-16T08:22:58;98521.59;;;21.81;66.02
49611;BME280;35515;48.766;9.176;2023-07-16T08:25:25;98513.25;;;22.07;63.25
49611;BME280;35515;48.766;9.176;2023-07-16T08:27:52;98498.66;;;22.01;59.55
49611;BME280;35515;48.766;9.176;2023-07-16T08:30:18;98508.63;;;21.97;61.33
49611;BME280;35515;48.766;9.176;2023-07-16T08:32:45;98483.88;;;21.71;60.31
49611;BME280;35515;48.766;9.176;2023-07-16T08:35:11;98480.53;;;21.69;61.19
49611;BME280;35515;48.766;9.176;2023-07-16T08:37:41;98479.69;;;21.84;60.42
49611;BME280;35515;48.766;9.176;2023-07-16T08:40:10;98489.06;;;21.88;60.17
49611;BME280;35515;48.766;9.176;2023-07-16T08:42:37;98506.13;;;22.06;59.10
49611;BME280;35515;48.766;9.176;2023-07-16T08:45:06;98491.75;;;22.09;58.69
49611;BME280;35515;48.766;9.176;2023-07-16T08:47:35;98496.19;;;22.00;58.84
49611;BME280;35515;48.766;9.176;2023-07-16T08:50:02;98503.91;;;22.03;57.94
49611;BME280;35515;48.766;9.176;2023-07-16T08:52:29;98497.28;;;21.99;59.30
49611;BME280;35515;48.766;9.176;2023-07-16T08:54:56;98503.91;;;21.98;58.37
49611;BME280;35515;48.766;9.176;2023-07-16T08:57:25;98509.44;;;21.98;58.78
49611;BME280;35515;48.766;9.176;2023-07-16T08:59:53;98503.34;;;22.06;58.18
49611;BME280;35515;48.766;9.176;2023-07-16T09:02:23;98504.13;;;22.27;57.15
49611;BME280;35515;48.766;9.176;2023-07-16T09:04:50;98508.28;;;22.14;57.23
49611;BME280;35515;48.766;9.176;2023-07-16T09:07:17;98514.91;;;22.18;57.88
49611;BME280;35515;48.766;9.176;2023-07-16T09:09:54;98513.72;;;22.45;57.74
49611;BME280;35515;48.766;9.176;2023-07-16T09:12:24;98507.13;;;22.31;55.95
49611;BME280;35515;48.766;9.176;2023-07-16T09:14:51;98502.66;;;22.50;56.18
49611;BME280;35515;48.766;9.176;2023-07-16T09:17:20;98492.66;;;22.60;56.08
49611;BME280;35515;48.766;9.176;2023-07-16T09:19:48;98504.72;;;22.79;54.50
49611;BME280;35515;48.766;9.176;2023-07-16T09:22:16;98501.97;;;22.79;54.59
49611;BME280;35515;48.766;9.176;2023-07-16T09:24:44;98508.03;;;22.76;54.49
49611;BME280;35515;48.766;9.176;2023-07-16T09:27:11;98506.59;;;22.89;51.75
49611;BME280;35515;48.766;9.176;2023-07-16T09:29:39;98506.44;;;22.70;52.57
49611;BME280;35515;48.766;9.176;2023-07-16T09:32:07;98500.31;;;22.73;54.59
49611;BME280;35515;48.766;9.176;2023-07-16T09:34:33;98504.94;;;22.88;52.70
49611;BME280;35515;48.766;9.176;2023-07-16T09:37:00;98499.41;;;22.88;52.67
49611;BME280;35515;48.766;9.176;2023-07-16T09:39:28;98503.34;;;22.77;52.14
49611;BME280;35515;48.766;9.176;2023-07-16T09:41:55;98495.91;;;22.72;52.24
49611;BME280;35515;48.766;9.176;2023-07-16T09:44:22;98497.13;;;22.56;52.19
49611;BME280;35515;48.766;9.176;2023-07-16T09:46:51;98498.19;;;22.60;53.47
49611;BME280;35515;48.766;9.176;2023-07-16T09:49:17;98496.69;;;22.78;52.51
49611;BME280;35515;48.766;9.176;2023-07-16T09:51:45;98497.22;;;22.85;50.83
49611;BME280;35515;48.766;9.176;2023-07-16T09:54:13;98496.59;;;22.93;51.50
49611;BME280;35515;48.766;9.176;2023-07-16T09:56:43;98486.38;;;22.94;51.74
49611;BME280;35515;48.766;9.176;2023-07-16T09:59:13;98489.50;;;22.82;51.31
49611;BME280;35515;48.766;9.176;2023-07-16T10:01:41;98498.59;;;22.87;51.03
49611;BME280;35515;48.766;9.176;2023-07-16T10:04:13;98493.88;;;22.88;51.96
49611;BME280;35515;48.766;9.176;2023-07-16T10:06:50;98501.06;;;22.89;51.76
49611;BME280;35515;48.766;9.176;2023-07-16T10:09:38;98496.31;;;22.95;52.36
49611;BME280;35515;48.766;9.176;2023-07-16T10:12:23;98499.97;;;22.85;51.96
49611;BME280;35515;48.766;9.176;2023-07-16T10:14:51;98499.19;;;22.79;52.35
49611;BME280;35515;48.766;9.176;2023-07-16T10:17:20;98492.88;;;22.68;51.99
49611;BME280;35515;48.766;9.176;2023-07-16T10:19:55;98488.41;;;22.78;52.73
49611;BME280;35515;48.766;9.176;2023-07-16T10:22:32;98500.78;;;22.85;52.78
49611;BME280;35515;48.766;9.176;2023-07-16T10:24:59;98490.19;;;23.03;51.07
49611;BME280;35515;48.766;9.176;2023-07-16T10:27:29;98486.34;;;22.99;50.90
49611;BME280;35515;48.766;9.176;2023-07-16T10:29:56;98491.91;;;22.94;51.33
49611;BME280;35515;48.766;9.176;2023-07-16T10:32:26;98484.97;;;22.96;51.52
49611;BME280;35515;48.766;9.176;2023-07-16T10:34:55;98477.72;;;23.05;51.58
49611;BME280;35515;48.766;9.176;2023-07-16T10:37:22;98478.88;;;23.04;51.52
49611;BME280;35515;48.766;9.176;2023-07-16T10:39:50;98471.88;;;23.12;51.36
49611;BME280;35515;48.766;9.176;2023-07-16T10:42:17;98474.75;;;23.02;50.34
49611;BME280;35515;48.766;9.176;2023-07-16T10:44:45;98460.66;;;22.98;51.65
49611;BME280;35515;48.766;9.176;2023-07-16T10:47:19;98470.56;;;23.04;51.11
49611;BME280;35515;48.766;9.176;2023-07-16T10:49:46;98469.03;;;23.28;50.88
49611;BME280;35515;48.766;9.176;2023-07-16T10:52:14;98467.03;;;23.33;48.95
49611;BME280;35515;48.766;9.176;2023-07-16T10:54:41;98472.81;;;23.37;49.04
49611;BME280;35515;48.766;9.176;2023-07-16T10:57:07;98466.69;;;23.40;48.39
49611;BME280;35515;48.766;9.176;2023-07-16T10:59:36;98465.03;;;23.39;48.70
49611;BME280;35515;48.766;9.176;2023-07-16T11:02:04;98469.75;;;23.38;48.77
49611;BME280;35515;48.766;9.176;2023-07-16T11:04:33;98458.34;;;23.75;47.40
49611;BME280;35515;48.766;9.176;2023-07-16T11:07:04;98456.41;;;23.75;46.85
49611;BME280;35515;48.766;9.176;2023-07-16T11:09:32;98458.00;;;23.81;47.19
49611;BME280;35515;48.766;9.176;2023-07-16T11:12:05;98459.59;;;23.87;47.56
49611;BME280;35515;48.766;9.176;2023-07-16T11:14:32;98457.38;;;23.90;47.97
49611;BME280;35515;48.766;9.176;2023-07-16T11:17:04;98459.97;;;24.05;45.55
49611;BME280;35515;48.766;9.176;2023-07-16T11:19:31;98457.19;;;24.29;44.95
49611;BME280;35515;48.766;9.176;2023-07-16T11:21:58;98460.00;;;24.24;44.66
49611;BME280;35515;48.766;9.176;2023-07-16T11:24:25;98451.06;;;24.08;46.25
49611;BME280;35515;48.766;9.176;2023-07-16T11:26:55;98452.91;;;23.94;46.16
49611;BME280;35515;48.766;9.176;2023-07-16T11:29:23;98448.16;;;23.99;46.14
49611;BME280;35515;48.766;9.176;2023-07-16T11:31:50;98454.03;;;23.93;46.35
49611;BME280;35515;48.766;9.176;2023-07-16T11:34:16;98458.91;;;24.01;45.91
49611;BME280;35515;48.766;9.176;2023-07-16T11:36:43;98456.09;;;24.06;45.94
49611;BME280;35515;48.766;9.176;2023-07-16T11:39:10;98445.22;;;23.85;46.85
49611;BME280;35515;48.766;9.176;2023-07-16T11:41:37;98453.53;;;23.85;46.96
49611;BME280;35515;48.766;9.176;2023-07-16T11:44:07;98454.56;;;23.95;47.37
49611;BME280;35515;48.766;9.176;2023-07-16T11:46:34;98443.88;;;24.07;46.87
49611;BME280;35515;48.766;9.176;2023-07-16T11:49:01;98444.31;;;24.19;46.53
49611;BME280;35515;48.766;9.176;2023-07-16T11:51:29;98436.50;;;24.21;46.57
49611;BME280;35515;48.766;9.176;2023-07-16T11:53:56;98436.00;;;24.19;47.26
49611;BME280;35515;48.766;9.176;2023-07-16T11:56:23;98440.34;;;24.26;46.26
49611;BME280;35515;48.766;9.176;2023-07-16T11:58:50;98439.69;;;24.34;46.57
49611;BME280;35515;48.766;9.176;2023-07-16T12:01:17;98428.75;;;24.43;46.00
49611;BME280;35515;48.766;9.176;2023-07-16T12:03:44;98433.25;;;24.58;46.65
49611;BME280;35515;48.766;9.176;2023-07-16T12:06:11;98422.59;;;24.70;44.95
49611;BME280;35515;48.766;9.176;2023-07-16T12:08:37;98419.38;;;24.63;46.43
49611;BME280;35515;48.766;9.176;2023-07-16T12:11:05;98418.59;;;24.57;44.55
49611;BME280;35515;48.766;9.176;2023-07-16T12:13:32;98406.59;;;24.62;45.58
49611;BME280;35515;48.766;9.176;2023-07-16T12:15:58;98392.25;;;24.60;44.80
49611;BME280;35515;48.766;9.176;2023-07-16T12:18:26;98404.97;;;24.61;45.30
49611;BME280;35515;48.766;9.176;2023-07-16T12:20:53;98404.97;;;24.61;44.96
49611;BME280;35515;48.766;9.176;2023-07-16T12:23:19;98400.03;;;24.58;44.73
49611;BME280;35515;48.766;9.176;2023-07-16T12:25:46;98406.09;;;24.60;45.14
49611;BME280;35515;48.766;9.176;2023-07-16T12:28:13;98398.28;;;24.62;45.14
49611;BME280;35515;48.766;9.176;2023-07-16T12:30:40;98394.13;;;24.64;45.50
49611;BME280;35515;48.766;9.176;2023-07-16T12:33:06;98391.09;;;24.66;45.82
49611;BME280;35515;48.766;9.176;2023-07-16T12:35:34;98394.81;;;24.75;45.25
49611;BME280;35515;48.766;9.176;2023-07-16T12:38:01;98388.22;;;24.71;44.60
49611;BME280;35515;48.766;9.176;2023-07-16T12:40:29;98381.94;;;24.65;45.28
49611;BME280;35515;48.766;9.176;2023-07-16T12:42:56;98388.44;;;24.75;45.20
49611;BME280;35515;48.766;9.176;2023-07-16T12:45:22;98386.22;;;24.77;47.18
49611;BME280;35515;48.766;9.176;2023-07-16T12:47:49;98386.41;;;24.80;44.43
49611;BME280;35515;48.766;9.176;2023-07-16T12:50:16;98393.66;;;24.95;44.23
49611;BME280;35515;48.766;9.176;2023-07-16T12:52:44;98388.94;;;24.96;44.29
49611;BME280;35515;48.766;9.176;2023-07-16T12:55:11;98397.16;;;25.01;44.64
49611;BME280;35515;48.766;9.176;2023-07-16T12:57:39;98392.25;;;24.98;44.34
49611;BME280;35515;48.766;9.176;2023-07-16T13:00:08;98396.94;;;24.97;44.97
49611;BME280;35515;48.766;9.176;2023-07-16T13:02:36;98393.44;;;24.92;45.19
49611;BME280;35515;48.766;9.176;2023-07-16T13:05:03;98389.97;;;25.00;44.27